sensor_id;sensor_type;location;lat;lon;timestamp;P1;durP1;ratioP1;P2;durP2;ratioP2
70787;SDS011;58391;47.752;19.100;2022-07-19T00:00:08;1.27;;;0.30;;
70787;SDS011;58391;47.752;19.100;2022-07-19T00:02:38;1.10;;;0.30;;
70787;SDS011;58391;47.752;19.100;2022-07-19T00:05:06;0.90;;;0.20;;
70787;SDS011;58391;47.752;19.100;2022-07-19T00:07:34;1.10;;;0.30;;
70787;SDS011;58391;47.752;19.100;2022-07-19T00:10:01;0.90;;;0.20;;
70787;SDS011;58391;47.752;19.100;2022-07-19T00:12:30;0.90;;;0.20;;
70787;SDS011;58391;47.752;19.100;2022-07-19T00:14:57;0.98;;;0.30;;
70787;SDS011;58391;47.752;19.100;2022-07-19T00:17:24;2.30;;;1.90;;
70787;SDS011;58391;47.752;19.100;2022-07-19T00:19:51;1.30;;;0.30;;
70787;SDS011;58391;47.752;19.100;2022-07-19T00:22:18;1.20;;;0.43;;
70787;SDS011;58391;47.752;19.100;2022-07-19T00:24:45;0.80;;;0.20;;
70787;SDS011;58391;47.752;19.100;2022-07-19T00:27:12;1.10;;;0.30;;
70787;SDS011;58391;47.752;19.100;2022-07-19T00:29:39;0.90;;;0.20;;
70787;SDS011;58391;47.752;19.100;2022-07-19T00:32:06;1.10;;;0.50;;
70787;SDS011;58391;47.752;19.100;2022-07-19T00:34:33;5.85;;;0.85;;
70787;SDS011;58391;47.752;19.100;2022-07-19T00:37:00;1.10;;;0.30;;
70787;SDS011;58391;47.752;19.100;2022-07-19T00:39:27;0.90;;;0.20;;
70787;SDS011;58391;47.752;19.100;2022-07-19T00:41:54;1.00;;;0.20;;
70787;SDS011;58391;47.752;19.100;2022-07-19T00:44:21;1.10;;;0.30;;
70787;SDS011;58391;47.752;19.100;2022-07-19T00:46:49;0.90;;;0.20;;
70787;SDS011;58391;47.752;19.100;2022-07-19T00:49:16;0.90;;;0.20;;
70787;SDS011;58391;47.752;19.100;2022-07-19T00:51:43;0.98;;;0.28;;
70787;SDS011;58391;47.752;19.100;2022-07-19T00:54:11;1.20;;;0.43;;
70787;SDS011;58391;47.752;19.100;2022-07-19T00:56:38;4.53;;;0.30;;
70787;SDS011;58391;47.752;19.100;2022-07-19T00:59:07;0.90;;;0.20;;
70787;SDS011;58391;47.752;19.100;2022-07-19T01:01:34;0.90;;;0.20;;
70787;SDS011;58391;47.752;19.100;2022-07-19T01:04:02;1.17;;;0.40;;
70787;SDS011;58391;47.752;19.100;2022-07-19T01:06:29;1.00;;;0.30;;
70787;SDS011;58391;47.752;19.100;2022-07-19T01:08:56;0.90;;;0.20;;
70787;SDS011;58391;47.752;19.100;2022-07-19T01:11:23;0.80;;;0.20;;
70787;SDS011;58391;47.752;19.100;2022-07-19T01:13:50;0.80;;;0.20;;
70787;SDS011;58391;47.752;19.100;2022-07-19T01:16:17;0.80;;;0.20;;
70787;SDS011;58391;47.752;19.100;2022-07-19T01:18:44;0.97;;;0.27;;
70787;SDS011;58391;47.752;19.100;2022-07-19T01:21:29;0.80;;;0.20;;
70787;SDS011;58391;47.752;19.100;2022-07-19T01:23:58;1.08;;;0.40;;
70787;SDS011;58391;47.752;19.100;2022-07-19T01:26:25;0.97;;;0.20;;
70787;SDS011;58391;47.752;19.100;2022-07-19T01:28:52;0.90;;;0.20;;
70787;SDS011;58391;47.752;19.100;2022-07-19T01:31:18;0.90;;;0.20;;
70787;SDS011;58391;47.752;19.100;2022-07-19T01:33:45;0.80;;;0.20;;
70787;SDS011;58391;47.752;19.100;2022-07-19T01:36:13;0.90;;;0.25;;
70787;SDS011;58391;47.752;19.100;2022-07-19T01:38:40;1.37;;;0.57;;
70787;SDS011;58391;47.752;19.100;2022-07-19T01:41:07;1.42;;;0.35;;
70787;SDS011;58391;47.752;19.100;2022-07-19T01:43:34;0.80;;;0.20;;
70787;SDS011;58391;47.752;19.100;2022-07-19T01:46:01;0.80;;;0.20;;
70787;SDS011;58391;47.752;19.100;2022-07-19T01:48:29;1.05;;;0.30;;
70787;SDS011;58391;47.752;19.100;2022-07-19T01:50:56;1.00;;;0.30;;
70787;SDS011;58391;47.752;19.100;2022-07-19T01:53:24;0.90;;;0.30;;
70787;SDS011;58391;47.752;19.100;2022-07-19T01:55:51;0.80;;;0.20;;
70787;SDS011;58391;47.752;19.100;2022-07-19T01:58:19;1.20;;;0.20;;
70787;SDS011;58391;47.752;19.100;2022-07-19T02:00:46;1.00;;;0.30;;
70787;SDS011;58391;47.752;19.100;2022-07-19T02:03:13;0.80;;;0.20;;
70787;SDS011;58391;47.752;19.100;2022-07-19T02:05:40;0.90;;;0.25;;
70787;SDS011;58391;47.752;19.100;2022-07-19T02:08:07;0.80;;;0.20;;
70787;SDS011;58391;47.752;19.100;2022-07-19T02:10:34;0.90;;;0.20;;
70787;SDS011;58391;47.752;19.100;2022-07-19T02:13:02;1.20;;;0.40;;
70787;SDS011;58391;47.752;19.100;2022-07-19T02:15:29;0.70;;;0.20;;
70787;SDS011;58391;47.752;19.100;2022-07-19T02:17:56;0.80;;;0.20;;
70787;SDS011;58391;47.752;19.100;2022-07-19T02:20:23;0.90;;;0.20;;
70787;SDS011;58391;47.752;19.100;2022-07-19T02:22:50;0.90;;;0.20;;
70787;SDS011;58391;47.752;19.100;2022-07-19T02:25:17;0.90;;;0.30;;
70787;SDS011;58391;47.752;19.100;2022-07-19T02:27:44;0.88;;;0.20;;
70787;SDS011;58391;47.752;19.100;2022-07-19T02:30:12;0.70;;;0.20;;
70787;SDS011;58391;47.752;19.100;2022-07-19T02:32:39;0.80;;;0.20;;
70787;SDS011;58391;47.752;19.100;2022-07-19T02:35:07;1.15;;;0.30;;
70787;SDS011;58391;47.752;19.100;2022-07-19T02:37:35;0.88;;;0.20;;
70787;SDS011;58391;47.752;19.100;2022-07-19T02:40:02;0.80;;;0.20;;
70787;SDS011;58391;47.752;19.100;2022-07-19T02:42:30;1.00;;;0.25;;
70787;SDS011;58391;47.752;19.100;2022-07-19T02:44:57;0.80;;;0.20;;
70787;SDS011;58391;47.752;19.100;2022-07-19T02:47:23;0.80;;;0.20;;
70787;SDS011;58391;47.752;19.100;2022-07-19T02:49:51;0.90;;;0.20;;
70787;SDS011;58391;47.752;19.100;2022-07-19T02:52:17;0.90;;;0.30;;
70787;SDS011;58391;47.752;19.100;2022-07-19T02:54:44;0.80;;;0.20;;
70787;SDS011;58391;47.752;19.100;2022-07-19T02:57:11;1.47;;;0.30;;
70787;SDS011;58391;47.752;19.100;2022-07-19T02:59:38;0.90;;;0.20;;
70787;SDS011;58391;47.752;19.100;2022-07-19T03:02:05;0.80;;;0.20;;
70787;SDS011;58391;47.752;19.100;2022-07-19T03:04:32;1.17;;;0.20;;
70787;SDS011;58391;47.752;19.100;2022-07-19T03:06:59;1.43;;;0.33;;
70787;SDS011;58391;47.752;19.100;2022-07-19T03:09:26;0.95;;;0.20;;
70787;SDS011;58391;47.752;19.100;2022-07-19T03:11:53;0.80;;;0.20;;
70787;SDS011;58391;47.752;19.100;2022-07-19T03:14:19;0.80;;;0.20;;
70787;SDS011;58391;47.752;19.100;2022-07-19T03:16:46;0.88;;;0.20;;
70787;SDS011;58391;47.752;19.100;2022-07-19T03:19:14;1.10;;;0.20;;
70787;SDS011;58391;47.752;19.100;2022-07-19T03:21:41;0.90;;;0.30;;
70787;SDS011;58391;47.752;19.100;2022-07-19T03:24:08;0.85;;;0.20;;
70787;SDS011;58391;47.752;19.100;2022-07-19T03:26:35;0.90;;;0.30;;
70787;SDS011;58391;47.752;19.100;2022-07-19T03:29:02;0.80;;;0.20;;
70787;SDS011;58391;47.752;19.100;2022-07-19T03:31:29;0.80;;;0.20;;
70787;SDS011;58391;47.752;19.100;2022-07-19T03:33:56;0.82;;;0.20;;
70787;SDS011;58391;47.752;19.100;2022-07-19T03:36:23;1.10;;;0.40;;
70787;SDS011;58391;47.752;19.100;2022-07-19T03:38:50;0.90;;;0.20;;
70787;SDS011;58391;47.752;19.100;2022-07-19T03:41:17;1.10;;;0.50;;
70787;SDS011;58391;47.752;19.100;2022-07-19T03:43:44;0.90;;;0.20;;
70787;SDS011;58391;47.752;19.100;2022-07-19T03:46:11;1.23;;;0.27;;
70787;SDS011;58391;47.752;19.100;2022-07-19T03:48:38;0.80;;;0.20;;
70787;SDS011;58391;47.752;19.100;2022-07-19T03:51:04;0.90;;;0.20;;
70787;SDS011;58391;47.752;19.100;2022-07-19T03:53:32;0.80;;;0.20;;
70787;SDS011;58391;47.752;19.100;2022-07-19T03:56:01;0.80;;;0.20;;
70787;SDS011;58391;47.752;19.100;2022-07-19T03:58:28;1.20;;;0.30;;
70787;SDS011;58391;47.752;19.100;2022-07-19T04:00:55;0.98;;;0.20;;
70787;SDS011;58391;47.752;19.100;2022-07-19T04:03:22;1.90;;;0.90;;
70787;SDS011;58391;47.752;19.100;2022-07-19T04:05:49;2.55;;;0.68;;
70787;SDS011;58391;47.752;19.100;2022-07-19T04:08:16;0.97;;;0.30;;
70787;SDS011;58391;47.752;19.100;2022-07-19T04:10:43;1.00;;;0.22;;
70787;SDS011;58391;47.752;19.100;2022-07-19T04:13:10;0.80;;;0.20;;
70787;SDS011;58391;47.752;19.100;2022-07-19T04:15:37;1.30;;;0.30;;
70787;SDS011;58391;47.752;19.100;2022-07-19T04:18:11;1.50;;;0.67;;
70787;SDS011;58391;47.752;19.100;2022-07-19T04:20:38;0.70;;;0.20;;
70787;SDS011;58391;47.752;19.100;2022-07-19T04:23:05;1.10;;;0.30;;
70787;SDS011;58391;47.752;19.100;2022-07-19T04:25:32;0.80;;;0.20;;
70787;SDS011;58391;47.752;19.100;2022-07-19T04:27:59;1.00;;;0.30;;
70787;SDS011;58391;47.752;19.100;2022-07-19T04:30:26;1.75;;;0.30;;
70787;SDS011;58391;47.752;19.100;2022-07-19T04:32:52;0.93;;;0.30;;
70787;SDS011;58391;47.752;19.100;2022-07-19T04:35:20;0.90;;;0.20;;
70787;SDS011;58391;47.752;19.100;2022-07-19T04:37:47;0.90;;;0.20;;
70787;SDS011;58391;47.752;19.100;2022-07-19T04:40:14;1.00;;;0.30;;
70787;SDS011;58391;47.752;19.100;2022-07-19T04:42:41;0.90;;;0.30;;
70787;SDS011;58391;47.752;19.100;2022-07-19T04:45:08;3.50;;;1.95;;
70787;SDS011;58391;47.752;19.100;2022-07-19T04:47:36;1.20;;;0.35;;
70787;SDS011;58391;47.752;19.100;2022-07-19T04:50:03;1.10;;;0.33;;
70787;SDS011;58391;47.752;19.100;2022-07-19T04:52:30;1.45;;;0.80;;
70787;SDS011;58391;47.752;19.100;2022-07-19T04:54:57;1.10;;;0.30;;
70787;SDS011;58391;47.752;19.100;2022-07-19T04:57:24;1.00;;;0.30;;
70787;SDS011;58391;47.752;19.100;2022-07-19T04:59:51;2.10;;;0.68;;
70787;SDS011;58391;47.752;19.100;2022-07-19T05:02:17;1.33;;;0.57;;
70787;SDS011;58391;47.752;19.100;2022-07-19T05:04:44;1.40;;;0.40;;
70787;SDS011;58391;47.752;19.100;2022-07-19T05:07:11;1.20;;;0.40;;
70787;SDS011;58391;47.752;19.100;2022-07-19T05:09:38;1.10;;;0.30;;
70787;SDS011;58391;47.752;19.100;2022-07-19T05:12:05;1.23;;;0.30;;
70787;SDS011;58391;47.752;19.100;2022-07-19T05:14:33;1.15;;;0.30;;
70787;SDS011;58391;47.752;19.100;2022-07-19T05:17:00;1.17;;;0.30;;
70787;SDS011;58391;47.752;19.100;2022-07-19T05:19:27;1.20;;;0.30;;
70787;SDS011;58391;47.752;19.100;2022-07-19T05:21:54;1.20;;;0.30;;
70787;SDS011;58391;47.752;19.100;2022-07-19T05:24:21;1.60;;;0.60;;
70787;SDS011;58391;47.752;19.100;2022-07-19T05:26:48;1.40;;;0.50;;
70787;SDS011;58391;47.752;19.100;2022-07-19T05:29:15;1.33;;;0.40;;
70787;SDS011;58391;47.752;19.100;2022-07-19T05:31:42;1.40;;;0.50;;
70787;SDS011;58391;47.752;19.100;2022-07-19T05:34:09;1.20;;;0.40;;
70787;SDS011;58391;47.752;19.100;2022-07-19T05:36:36;1.20;;;0.30;;
70787;SDS011;58391;47.752;19.100;2022-07-19T05:39:03;1.20;;;0.30;;
70787;SDS011;58391;47.752;19.100;2022-07-19T05:41:30;1.67;;;0.50;;
70787;SDS011;58391;47.752;19.100;2022-07-19T05:43:57;1.20;;;0.32;;
70787;SDS011;58391;47.752;19.100;2022-07-19T05:46:24;1.40;;;0.40;;
70787;SDS011;58391;47.752;19.100;2022-07-19T05:48:51;1.45;;;0.40;;
70787;SDS011;58391;47.752;19.100;2022-07-19T05:51:18;2.22;;;0.45;;
70787;SDS011;58391;47.752;19.100;2022-07-19T05:53:45;1.43;;;0.50;;
70787;SDS011;58391;47.752;19.100;2022-07-19T05:56:12;1.30;;;0.40;;
70787;SDS011;58391;47.752;19.100;2022-07-19T05:58:39;1.87;;;0.52;;
70787;SDS011;58391;47.752;19.100;2022-07-19T06:01:06;1.40;;;0.40;;
70787;SDS011;58391;47.752;19.100;2022-07-19T06:03:46;2.53;;;0.70;;
70787;SDS011;58391;47.752;19.100;2022-07-19T06:06:23;1.40;;;0.40;;
70787;SDS011;58391;47.752;19.100;2022-07-19T06:08:51;1.40;;;0.40;;
70787;SDS011;58391;47.752;19.100;2022-07-19T06:11:18;1.25;;;0.40;;
70787;SDS011;58391;47.752;19.100;2022-07-19T06:13:45;1.40;;;0.52;;
70787;SDS011;58391;47.752;19.100;2022-07-19T06:16:13;1.40;;;0.50;;
70787;SDS011;58391;47.752;19.100;2022-07-19T06:18:40;1.40;;;0.50;;
70787;SDS011;58391;47.752;19.100;2022-07-19T06:21:09;1.35;;;0.43;;
70787;SDS011;58391;47.752;19.100;2022-07-19T06:23:37;1.58;;;0.60;;
70787;SDS011;58391;47.752;19.100;2022-07-19T06:26:05;1.87;;;0.90;;
70787;SDS011;58391;47.752;19.100;2022-07-19T06:28:33;1.60;;;0.57;;
70787;SDS011;58391;47.752;19.100;2022-07-19T06:31:07;1.40;;;0.50;;
70787;SDS011;58391;47.752;19.100;2022-07-19T06:33:35;1.70;;;0.73;;
70787;SDS011;58391;47.752;19.100;2022-07-19T06:36:02;1.45;;;0.52;;
70787;SDS011;58391;47.752;19.100;2022-07-19T06:38:29;1.40;;;0.50;;
70787;SDS011;58391;47.752;19.100;2022-07-19T06:40:56;1.62;;;0.60;;
70787;SDS011;58391;47.752;19.100;2022-07-19T06:43:23;1.70;;;0.55;;
70787;SDS011;58391;47.752;19.100;2022-07-19T06:45:50;1.40;;;0.50;;
70787;SDS011;58391;47.752;19.100;2022-07-19T06:48:17;1.48;;;0.57;;
70787;SDS011;58391;47.752;19.100;2022-07-19T06:50:44;1.60;;;0.57;;
70787;SDS011;58391;47.752;19.100;2022-07-19T06:53:11;1.50;;;0.60;;
70787;SDS011;58391;47.752;19.100;2022-07-19T06:55:38;1.40;;;0.53;;
70787;SDS011;58391;47.752;19.100;2022-07-19T06:58:05;1.80;;;0.85;;
70787;SDS011;58391;47.752;19.100;2022-07-19T07:00:32;1.52;;;0.60;;
70787;SDS011;58391;47.752;19.100;2022-07-19T07:02:59;1.40;;;0.50;;
70787;SDS011;58391;47.752;19.100;2022-07-19T07:05:26;1.85;;;0.68;;
70787;SDS011;58391;47.752;19.100;2022-07-19T07:07:53;2.30;;;0.73;;
70787;SDS011;58391;47.752;19.100;2022-07-19T07:10:21;1.40;;;0.50;;
70787;SDS011;58391;47.752;19.100;2022-07-19T07:12:48;1.50;;;0.60;;
70787;SDS011;58391;47.752;19.100;2022-07-19T07:15:15;1.83;;;0.80;;
70787;SDS011;58391;47.752;19.100;2022-07-19T07:17:43;1.85;;;0.73;;
70787;SDS011;58391;47.752;19.100;2022-07-19T07:20:14;1.50;;;0.60;;
70787;SDS011;58391;47.752;19.100;2022-07-19T07:22:49;1.40;;;0.50;;
70787;SDS011;58391;47.752;19.100;2022-07-19T07:25:16;1.62;;;0.70;;
70787;SDS011;58391;47.752;19.100;2022-07-19T07:27:43;1.70;;;0.80;;
70787;SDS011;58391;47.752;19.100;2022-07-19T07:30:10;1.70;;;0.80;;
70787;SDS011;58391;47.752;19.100;2022-07-19T07:32:37;1.60;;;0.70;;
70787;SDS011;58391;47.752;19.100;2022-07-19T07:35:04;1.60;;;0.70;;
70787;SDS011;58391;47.752;19.100;2022-07-19T07:37:32;1.50;;;0.60;;
70787;SDS011;58391;47.752;19.100;2022-07-19T07:39:59;1.60;;;0.70;;
70787;SDS011;58391;47.752;19.100;2022-07-19T07:42:25;1.70;;;0.80;;
70787;SDS011;58391;47.752;19.100;2022-07-19T07:44:52;1.48;;;0.57;;
70787;SDS011;58391;47.752;19.100;2022-07-19T07:47:19;1.65;;;0.70;;
70787;SDS011;58391;47.752;19.100;2022-07-19T07:49:46;1.80;;;0.93;;
70787;SDS011;58391;47.752;19.100;2022-07-19T07:52:15;1.80;;;0.80;;
70787;SDS011;58391;47.752;19.100;2022-07-19T07:54:42;1.98;;;0.80;;
70787;SDS011;58391;47.752;19.100;2022-07-19T07:57:29;1.73;;;0.82;;
70787;SDS011;58391;47.752;19.100;2022-07-19T07:59:56;1.92;;;0.88;;
70787;SDS011;58391;47.752;19.100;2022-07-19T08:02:23;2.15;;;0.80;;
70787;SDS011;58391;47.752;19.100;2022-07-19T08:04:50;1.80;;;0.90;;
70787;SDS011;58391;47.752;19.100;2022-07-19T08:07:17;1.73;;;0.88;;
70787;SDS011;58391;47.752;19.100;2022-07-19T08:09:44;4.03;;;2.03;;
70787;SDS011;58391;47.752;19.100;2022-07-19T08:12:11;1.70;;;0.75;;
70787;SDS011;58391;47.752;19.100;2022-07-19T08:14:38;1.80;;;1.00;;
70787;SDS011;58391;47.752;19.100;2022-07-19T08:17:05;2.10;;;0.90;;
70787;SDS011;58391;47.752;19.100;2022-07-19T08:19:32;1.80;;;0.98;;
70787;SDS011;58391;47.752;19.100;2022-07-19T08:21:59;2.20;;;1.20;;
70787;SDS011;58391;47.752;19.100;2022-07-19T08:24:26;1.80;;;1.00;;
70787;SDS011;58391;47.752;19.100;2022-07-19T08:26:53;1.90;;;1.10;;
70787;SDS011;58391;47.752;19.100;2022-07-19T08:29:22;1.65;;;0.80;;
70787;SDS011;58391;47.752;19.100;2022-07-19T08:31:49;1.80;;;0.98;;
70787;SDS011;58391;47.752;19.100;2022-07-19T08:34:16;1.90;;;1.10;;
70787;SDS011;58391;47.752;19.100;2022-07-19T08:36:43;2.00;;;1.20;;
70787;SDS011;58391;47.752;19.100;2022-07-19T08:39:10;1.90;;;1.10;;
70787;SDS011;58391;47.752;19.100;2022-07-19T08:41:37;2.20;;;1.10;;
70787;SDS011;58391;47.752;19.100;2022-07-19T08:44:04;1.73;;;0.90;;
70787;SDS011;58391;47.752;19.100;2022-07-19T08:46:31;2.03;;;1.00;;
70787;SDS011;58391;47.752;19.100;2022-07-19T08:48:58;2.23;;;1.20;;
70787;SDS011;58391;47.752;19.100;2022-07-19T08:51:25;2.25;;;1.45;;
70787;SDS011;58391;47.752;19.100;2022-07-19T08:53:53;1.87;;;1.05;;
70787;SDS011;58391;47.752;19.100;2022-07-19T08:56:20;1.90;;;1.10;;
70787;SDS011;58391;47.752;19.100;2022-07-19T08:59:06;1.90;;;1.03;;
70787;SDS011;58391;47.752;19.100;2022-07-19T09:01:34;2.12;;;1.20;;
70787;SDS011;58391;47.752;19.100;2022-07-19T09:04:12;2.00;;;1.10;;
70787;SDS011;58391;47.752;19.100;2022-07-19T09:09:09;1.90;;;1.10;;
70787;SDS011;58391;47.752;19.100;2022-07-19T09:11:38;1.93;;;1.10;;
70787;SDS011;58391;47.752;19.100;2022-07-19T09:14:21;1.90;;;1.08;;
70787;SDS011;58391;47.752;19.100;2022-07-19T09:19:16;2.90;;;1.60;;
70787;SDS011;58391;47.752;19.100;2022-07-19T09:24:26;2.10;;;1.30;;
70787;SDS011;58391;47.752;19.100;2022-07-19T09:27:08;8.07;;;1.35;;
70787;SDS011;58391;47.752;19.100;2022-07-19T09:29:39;1.90;;;1.08;;
70787;SDS011;58391;47.752;19.100;2022-07-19T09:32:11;2.10;;;1.30;;
70787;SDS011;58391;47.752;19.100;2022-07-19T09:37:16;2.03;;;1.25;;
70787;SDS011;58391;47.752;19.100;2022-07-19T09:39:52;1.92;;;1.12;;
70787;SDS011;58391;47.752;19.100;2022-07-19T09:47:38;2.10;;;1.30;;
70787;SDS011;58391;47.752;19.100;2022-07-19T09:50:08;3.67;;;1.50;;
70787;SDS011;58391;47.752;19.100;2022-07-19T09:52:36;2.10;;;1.27;;
70787;SDS011;58391;47.752;19.100;2022-07-19T09:55:12;1.83;;;1.00;;
70787;SDS011;58391;47.752;19.100;2022-07-19T09:57:41;5.80;;;1.27;;
70787;SDS011;58391;47.752;19.100;2022-07-19T10:00:12;2.00;;;1.25;;
70787;SDS011;58391;47.752;19.100;2022-07-19T10:02:40;2.27;;;1.47;;
70787;SDS011;58391;47.752;19.100;2022-07-19T10:05:10;2.20;;;1.40;;
70787;SDS011;58391;47.752;19.100;2022-07-19T10:07:38;2.20;;;1.23;;
70787;SDS011;58391;47.752;19.100;2022-07-19T10:10:07;2.03;;;1.25;;
70787;SDS011;58391;47.752;19.100;2022-07-19T10:12:37;2.00;;;1.23;;
70787;SDS011;58391;47.752;19.100;2022-07-19T10:15:06;1.90;;;1.10;;
70787;SDS011;58391;47.752;19.100;2022-07-19T10:17:37;2.30;;;1.60;;
70787;SDS011;58391;47.752;19.100;2022-07-19T10:20:06;2.20;;;1.37;;
70787;SDS011;58391;47.752;19.100;2022-07-19T10:22:34;2.40;;;1.50;;
70787;SDS011;58391;47.752;19.100;2022-07-19T10:27:35;1.90;;;1.20;;
70787;SDS011;58391;47.752;19.100;2022-07-19T10:32:34;2.00;;;1.20;;
70787;SDS011;58391;47.752;19.100;2022-07-19T10:35:14;2.00;;;1.12;;
70787;SDS011;58391;47.752;19.100;2022-07-19T10:37:43;1.90;;;1.17;;
70787;SDS011;58391;47.752;19.100;2022-07-19T10:40:11;2.45;;;1.35;;
70787;SDS011;58391;47.752;19.100;2022-07-19T10:43:22;1.83;;;0.95;;
70787;SDS011;58391;47.752;19.100;2022-07-19T10:45:29;1.93;;;1.20;;
70787;SDS011;58391;47.752;19.100;2022-07-19T10:47:58;2.00;;;1.20;;
70787;SDS011;58391;47.752;19.100;2022-07-19T10:50:41;1.90;;;1.10;;
70787;SDS011;58391;47.752;19.100;2022-07-19T10:56:14;1.90;;;1.10;;
70787;SDS011;58391;47.752;19.100;2022-07-19T10:58:56;2.00;;;1.20;;
70787;SDS011;58391;47.752;19.100;2022-07-19T11:01:28;1.60;;;0.80;;
70787;SDS011;58391;47.752;19.100;2022-07-19T11:04:21;2.22;;;1.30;;
70787;SDS011;58391;47.752;19.100;2022-07-19T11:06:49;2.08;;;1.00;;
70787;SDS011;58391;47.752;19.100;2022-07-19T11:09:17;2.00;;;1.20;;
70787;SDS011;58391;47.752;19.100;2022-07-19T11:11:51;3.47;;;1.70;;
70787;SDS011;58391;47.752;19.100;2022-07-19T11:14:17;1.90;;;1.00;;
70787;SDS011;58391;47.752;19.100;2022-07-19T11:16:46;2.00;;;1.02;;
70787;SDS011;58391;47.752;19.100;2022-07-19T11:19:13;1.70;;;0.80;;
70787;SDS011;58391;47.752;19.100;2022-07-19T11:21:40;1.87;;;1.00;;
70787;SDS011;58391;47.752;19.100;2022-07-19T11:24:08;2.10;;;1.13;;
70787;SDS011;58391;47.752;19.100;2022-07-19T11:26:39;2.33;;;1.20;;
70787;SDS011;58391;47.752;19.100;2022-07-19T11:29:13;2.00;;;1.17;;
70787;SDS011;58391;47.752;19.100;2022-07-19T11:31:47;1.87;;;0.98;;
70787;SDS011;58391;47.752;19.100;2022-07-19T11:34:14;2.00;;;1.23;;
70787;SDS011;58391;47.752;19.100;2022-07-19T11:36:41;1.90;;;1.07;;
70787;SDS011;58391;47.752;19.100;2022-07-19T11:39:08;1.90;;;0.93;;
70787;SDS011;58391;47.752;19.100;2022-07-19T11:41:36;2.10;;;1.20;;
70787;SDS011;58391;47.752;19.100;2022-07-19T11:44:04;5.82;;;1.20;;
70787;SDS011;58391;47.752;19.100;2022-07-19T11:46:34;1.70;;;0.85;;
70787;SDS011;58391;47.752;19.100;2022-07-19T11:49:07;1.80;;;0.90;;
70787;SDS011;58391;47.752;19.100;2022-07-19T11:51:36;1.80;;;0.90;;
70787;SDS011;58391;47.752;19.100;2022-07-19T11:54:04;2.15;;;1.17;;
70787;SDS011;58391;47.752;19.100;2022-07-19T11:56:33;1.80;;;0.90;;
70787;SDS011;58391;47.752;19.100;2022-07-19T11:59:02;2.03;;;1.02;;
70787;SDS011;58391;47.752;19.100;2022-07-19T12:01:34;2.55;;;1.10;;
70787;SDS011;58391;47.752;19.100;2022-07-19T12:04:10;1.90;;;1.00;;
70787;SDS011;58391;47.752;19.100;2022-07-19T12:06:43;2.08;;;1.08;;
70787;SDS011;58391;47.752;19.100;2022-07-19T12:09:15;2.13;;;1.00;;
70787;SDS011;58391;47.752;19.100;2022-07-19T12:16:49;1.70;;;0.90;;
70787;SDS011;58391;47.752;19.100;2022-07-19T12:19:17;1.90;;;1.00;;
70787;SDS011;58391;47.752;19.100;2022-07-19T12:21:46;2.00;;;1.20;;
70787;SDS011;58391;47.752;19.100;2022-07-19T12:32:12;2.85;;;1.15;;
70787;SDS011;58391;47.752;19.100;2022-07-19T12:34:42;1.90;;;1.10;;
70787;SDS011;58391;47.752;19.100;2022-07-19T12:37:26;1.70;;;0.90;;
70787;SDS011;58391;47.752;19.100;2022-07-19T12:42:42;1.83;;;1.00;;
70787;SDS011;58391;47.752;19.100;2022-07-19T12:45:17;2.22;;;1.17;;
70787;SDS011;58391;47.752;19.100;2022-07-19T12:47:45;2.00;;;1.20;;
70787;SDS011;58391;47.752;19.100;2022-07-19T12:50:21;2.00;;;1.30;;
70787;SDS011;58391;47.752;19.100;2022-07-19T12:52:50;2.03;;;1.25;;
70787;SDS011;58391;47.752;19.100;2022-07-19T12:55:19;1.80;;;0.90;;
70787;SDS011;58391;47.752;19.100;2022-07-19T12:57:48;2.00;;;1.20;;
70787;SDS011;58391;47.752;19.100;2022-07-19T13:00:16;2.20;;;1.40;;
70787;SDS011;58391;47.752;19.100;2022-07-19T13:02:44;2.92;;;1.60;;
70787;SDS011;58391;47.752;19.100;2022-07-19T13:05:13;2.03;;;1.30;;
70787;SDS011;58391;47.752;19.100;2022-07-19T13:07:40;2.10;;;1.30;;
70787;SDS011;58391;47.752;19.100;2022-07-19T13:10:07;2.10;;;1.30;;
70787;SDS011;58391;47.752;19.100;2022-07-19T13:12:34;1.90;;;1.10;;
70787;SDS011;58391;47.752;19.100;2022-07-19T13:15:05;2.10;;;1.20;;
70787;SDS011;58391;47.752;19.100;2022-07-19T13:17:33;2.93;;;1.37;;
70787;SDS011;58391;47.752;19.100;2022-07-19T13:20:00;2.10;;;1.40;;
70787;SDS011;58391;47.752;19.100;2022-07-19T13:22:27;2.53;;;1.52;;
70787;SDS011;58391;47.752;19.100;2022-07-19T13:24:54;1.98;;;1.12;;
70787;SDS011;58391;47.752;19.100;2022-07-19T13:27:41;5.40;;;2.40;;
70787;SDS011;58391;47.752;19.100;2022-07-19T13:30:08;2.00;;;1.20;;
70787;SDS011;58391;47.752;19.100;2022-07-19T13:32:40;2.17;;;1.40;;
70787;SDS011;58391;47.752;19.100;2022-07-19T13:35:08;2.10;;;1.30;;
70787;SDS011;58391;47.752;19.100;2022-07-19T13:37:35;2.00;;;1.17;;
70787;SDS011;58391;47.752;19.100;2022-07-19T13:40:02;2.10;;;1.30;;
70787;SDS011;58391;47.752;19.100;2022-07-19T13:42:29;2.30;;;1.60;;
70787;SDS011;58391;47.752;19.100;2022-07-19T13:44:56;2.15;;;1.30;;
70787;SDS011;58391;47.752;19.100;2022-07-19T13:47:23;1.90;;;1.02;;
70787;SDS011;58391;47.752;19.100;2022-07-19T13:49:50;2.85;;;1.60;;
70787;SDS011;58391;47.752;19.100;2022-07-19T13:52:17;2.20;;;1.40;;
70787;SDS011;58391;47.752;19.100;2022-07-19T13:54:44;2.30;;;1.50;;
70787;SDS011;58391;47.752;19.100;2022-07-19T13:57:11;2.05;;;1.27;;
70787;SDS011;58391;47.752;19.100;2022-07-19T13:59:39;2.28;;;1.42;;
70787;SDS011;58391;47.752;19.100;2022-07-19T14:02:06;2.20;;;1.40;;
70787;SDS011;58391;47.752;19.100;2022-07-19T14:04:33;2.10;;;1.30;;
70787;SDS011;58391;47.752;19.100;2022-07-19T14:07:00;2.47;;;1.37;;
70787;SDS011;58391;47.752;19.100;2022-07-19T14:09:27;2.20;;;1.48;;
70787;SDS011;58391;47.752;19.100;2022-07-19T14:11:54;2.20;;;1.42;;
70787;SDS011;58391;47.752;19.100;2022-07-19T14:14:21;2.37;;;1.67;;
70787;SDS011;58391;47.752;19.100;2022-07-19T14:16:48;2.75;;;1.50;;
70787;SDS011;58391;47.752;19.100;2022-07-19T14:19:16;2.00;;;1.20;;
70787;SDS011;58391;47.752;19.100;2022-07-19T14:21:43;3.03;;;1.33;;
70787;SDS011;58391;47.752;19.100;2022-07-19T14:24:10;2.00;;;1.13;;
70787;SDS011;58391;47.752;19.100;2022-07-19T14:26:37;1.80;;;1.00;;
70787;SDS011;58391;47.752;19.100;2022-07-19T14:29:03;2.00;;;1.17;;
70787;SDS011;58391;47.752;19.100;2022-07-19T14:31:30;2.20;;;1.23;;
70787;SDS011;58391;47.752;19.100;2022-07-19T14:34:05;2.00;;;1.20;;
70787;SDS011;58391;47.752;19.100;2022-07-19T14:36:52;2.10;;;1.30;;
70787;SDS011;58391;47.752;19.100;2022-07-19T14:39:19;2.13;;;1.30;;
70787;SDS011;58391;47.752;19.100;2022-07-19T14:41:46;2.15;;;1.30;;
70787;SDS011;58391;47.752;19.100;2022-07-19T14:44:12;1.98;;;1.12;;
70787;SDS011;58391;47.752;19.100;2022-07-19T14:46:39;2.00;;;1.10;;
70787;SDS011;58391;47.752;19.100;2022-07-19T14:49:06;2.20;;;1.33;;
70787;SDS011;58391;47.752;19.100;2022-07-19T14:51:34;2.78;;;1.15;;
70787;SDS011;58391;47.752;19.100;2022-07-19T14:54:01;2.25;;;1.30;;
70787;SDS011;58391;47.752;19.100;2022-07-19T14:56:38;2.50;;;1.27;;
70787;SDS011;58391;47.752;19.100;2022-07-19T14:59:05;2.08;;;1.20;;
70787;SDS011;58391;47.752;19.100;2022-07-19T15:01:32;1.73;;;0.80;;
70787;SDS011;58391;47.752;19.100;2022-07-19T15:04:00;2.17;;;1.23;;
70787;SDS011;58391;47.752;19.100;2022-07-19T15:06:27;1.87;;;1.03;;
70787;SDS011;58391;47.752;19.100;2022-07-19T15:08:55;1.70;;;0.82;;
70787;SDS011;58391;47.752;19.100;2022-07-19T15:11:22;1.92;;;1.10;;
70787;SDS011;58391;47.752;19.100;2022-07-19T15:13:49;1.87;;;0.93;;
70787;SDS011;58391;47.752;19.100;2022-07-19T15:16:16;1.70;;;0.90;;
70787;SDS011;58391;47.752;19.100;2022-07-19T15:18:43;1.70;;;0.87;;